Terminal Aerodrome Forecast
Issued by NWS

Home | Current Version | Previous Version | Text Only | Print | Product List | Glossary On
Versions: 1 2 3 4 5 6 7 8 9 10 11 12 13 14
000
FTUS45 KPSR 242300
TAFIWA
TAF
KIWA 242320Z 2500/2524 29004KT P6SM SKC
     FM250400 11005KT P6SM SKC
     FM251500 15007KT P6SM SCT100
     FM251800 17008KT P6SM SCT070 BKN100
      TEMPO 2520/2524 27007KT
      AMD LTD TO CLD VIS AND WIND 2503/2513=

USA.gov is the U.S. government's official web portal to all federal, state and local government web resources and services.